Time,TemperatureF,DewpointF,PressureIn,WindDirection,WindDirectionDegrees,WindSpeedMPH,WindSpeedGustMPH,Humidity,HourlyPrecipIn,Conditions,Clouds,dailyrainin,SoftwareType,DateUTC
2013-03-24 00:02:00,-1.0,-99.9,-100.00,WNW,300,12.0,16.0,-999,-99.99,,,-99.99,,2013-03-24 06:02:00,
2013-03-24 00:12:00,-1.0,-99.9,-100.00,WNW,303,15.0,18.0,-999,-99.99,,,-99.99,,2013-03-24 06:12:00,
2013-03-24 00:22:00,-1.0,-99.9,-100.00,WNW,303,15.0,18.0,-999,-99.99,,,-99.99,,2013-03-24 06:22:00,
2013-03-24 00:32:00,-1.0,-99.9,-100.00,WNW,303,15.0,18.0,-999,-99.99,,,-99.99,,2013-03-24 06:32:00,
2013-03-24 01:12:00,-1.0,-99.9,-100.00,NW,310,10.0,14.0,-999,-99.99,,,-99.99,,2013-03-24 07:12:00,
2013-03-24 01:22:00,-1.0,-99.9,-100.00,NW,310,10.0,14.0,-999,-99.99,,,-99.99,,2013-03-24 07:22:00,
2013-03-24 01:32:00,-1.0,-99.9,-100.00,NW,310,10.0,14.0,-999,-99.99,,,-99.99,,2013-03-24 07:32:00,
2013-03-24 01:42:00,-1.0,-99.9,-100.00,NW,315,12.0,17.0,-999,-99.99,,,-99.99,,2013-03-24 07:42:00,
2013-03-24 01:53:00,-1.0,-99.9,-100.00,NW,315,12.0,17.0,-999,-99.99,,,-99.99,,2013-03-24 07:53:00,
2013-03-24 02:12:00,-1.0,-99.9,-100.00,NW,314,12.0,15.0,-999,-99.99,,,-99.99,,2013-03-24 08:12:00,
2013-03-24 02:22:00,-1.0,-99.9,-100.00,NW,314,12.0,15.0,-999,-99.99,,,-99.99,,2013-03-24 08:22:00,
2013-03-24 02:32:00,-1.0,-99.9,-100.00,NW,314,12.0,15.0,-999,-99.99,,,-99.99,,2013-03-24 08:32:00,
2013-03-24 02:42:00,-1.0,-99.9,-100.00,NW,315,12.0,17.0,-999,-99.99,,,-99.99,,2013-03-24 08:42:00,
2013-03-24 02:53:00,-1.0,-99.9,-100.00,NW,315,12.0,17.0,-999,-99.99,,,-99.99,,2013-03-24 08:53:00,
2013-03-24 03:02:00,-1.0,-99.9,-100.00,NW,317,12.0,16.0,-999,-99.99,,,-99.99,,2013-03-24 09:02:00,
2013-03-24 03:12:00,-1.0,-99.9,-100.00,NW,318,13.0,17.0,-999,-99.99,,,-99.99,,2013-03-24 09:12:00,
2013-03-24 03:22:00,-1.0,-99.9,-100.00,NW,318,13.0,17.0,-999,-99.99,,,-99.99,,2013-03-24 09:22:00,
2013-03-24 03:33:00,-1.0,-99.9,-100.00,NW,318,13.0,17.0,-999,-99.99,,,-99.99,,2013-03-24 09:33:00,
2013-03-24 03:43:00,-1.0,-99.9,-100.00,NW,315,12.0,16.0,-999,-99.99,,,-99.99,,2013-03-24 09:43:00,
2013-03-24 03:53:00,-1.0,-99.9,-100.00,NW,315,12.0,16.0,-999,-99.99,,,-99.99,,2013-03-24 09:53:00,
2013-03-24 04:03:00,-1.0,-99.9,-100.00,NW,321,11.0,17.0,-999,-99.99,,,-99.99,,2013-03-24 10:03:00,
2013-03-24 04:13:00,-1.0,-99.9,-100.00,NW,318,12.0,17.0,-999,-99.99,,,-99.99,,2013-03-24 10:13:00,
2013-03-24 04:23:00,-1.0,-99.9,-100.00,NW,318,12.0,17.0,-999,-99.99,,,-99.99,,2013-03-24 10:23:00,
2013-03-24 04:33:00,-1.0,-99.9,-100.00,NW,318,12.0,17.0,-999,-99.99,,,-99.99,,2013-03-24 10:33:00,
2013-03-24 04:43:00,-1.0,-99.9,-100.00,NW,319,12.0,17.0,-999,-99.99,,,-99.99,,2013-03-24 10:43:00,
2013-03-24 04:53:00,-1.0,-99.9,-100.00,NW,319,12.0,17.0,-999,-99.99,,,-99.99,,2013-03-24 10:53:00,
2013-03-24 05:03:00,-1.0,-99.9,-100.00,NW,319,12.0,17.0,-999,-99.99,,,-99.99,,2013-03-24 11:03:00,
2013-03-24 05:12:00,-2.0,-99.9,-100.00,NW,318,11.0,14.0,-999,-99.99,,,-99.99,,2013-03-24 11:12:00,
2013-03-24 05:22:00,-2.0,-99.9,-100.00,NW,318,11.0,14.0,-999,-99.99,,,-99.99,,2013-03-24 11:22:00,
2013-03-24 05:33:00,-2.0,-99.9,-100.00,NW,318,11.0,14.0,-999,-99.99,,,-99.99,,2013-03-24 11:33:00,
2013-03-24 05:43:00,-2.0,-99.9,-100.00,NW,313,9.0,13.0,-999,-99.99,,,-99.99,,2013-03-24 11:43:00,
2013-03-24 05:52:00,-2.0,-99.9,-100.00,NW,313,9.0,13.0,-999,-99.99,,,-99.99,,2013-03-24 11:52:00,
2013-03-24 06:03:00,-1.0,-99.9,-100.00,NW,311,9.0,16.0,-999,-99.99,,,-99.99,,2013-03-24 12:03:00,
2013-03-24 06:13:00,-1.0,-99.9,-100.00,NW,312,9.0,15.0,-999,-99.99,,,-99.99,,2013-03-24 12:13:00,
2013-03-24 06:23:00,-1.0,-99.9,-100.00,NW,312,9.0,15.0,-999,-99.99,,,-99.99,,2013-03-24 12:23:00,
2013-03-24 06:33:00,-1.0,-99.9,-100.00,NW,312,9.0,15.0,-999,-99.99,,,-99.99,,2013-03-24 12:33:00,
2013-03-24 06:42:00,-2.0,-99.9,-100.00,NW,315,8.0,11.0,-999,-99.99,,,-99.99,,2013-03-24 12:42:00,
2013-03-24 06:53:00,-2.0,-99.9,-100.00,NW,315,8.0,11.0,-999,-99.99,,,-99.99,,2013-03-24 12:53:00,
2013-03-24 07:03:00,-1.0,-99.9,-100.00,NW,316,9.0,13.0,-999,-99.99,,,-99.99,,2013-03-24 13:03:00,
2013-03-24 07:13:00,-1.0,-99.9,-100.00,NW,315,9.0,15.0,-999,-99.99,,,-99.99,,2013-03-24 13:13:00,
2013-03-24 07:23:00,-1.0,-99.9,-100.00,NW,315,9.0,15.0,-999,-99.99,,,-99.99,,2013-03-24 13:23:00,
2013-03-24 07:33:00,-1.0,-99.9,-100.00,NW,315,9.0,15.0,-999,-99.99,,,-99.99,,2013-03-24 13:33:00,
2013-03-24 07:43:00,-1.0,-99.9,-100.00,NW,314,9.0,15.0,-999,-99.99,,,-99.99,,2013-03-24 13:43:00,
2013-03-24 07:53:00,-1.0,-99.9,-100.00,NW,314,9.0,15.0,-999,-99.99,,,-99.99,,2013-03-24 13:53:00,
2013-03-24 08:03:00,-1.0,-99.9,-100.00,NW,311,10.0,15.0,-999,-99.99,,,-99.99,,2013-03-24 14:03:00,
2013-03-24 08:13:00,-1.0,-99.9,-100.00,NW,313,10.0,14.0,-999,-99.99,,,-99.99,,2013-03-24 14:13:00,
2013-03-24 08:22:00,-1.0,-99.9,-100.00,NW,313,10.0,14.0,-999,-99.99,,,-99.99,,2013-03-24 14:22:00,
2013-03-24 08:33:00,-1.0,-99.9,-100.00,NW,313,10.0,14.0,-999,-99.99,,,-99.99,,2013-03-24 14:33:00,
2013-03-24 08:43:00,2.0,-99.9,-100.00,NW,312,9.0,14.0,-999,-99.99,,,-99.99,,2013-03-24 14:43:00,
2013-03-24 08:53:00,2.0,-99.9,-100.00,NW,312,9.0,14.0,-999,-99.99,,,-99.99,,2013-03-24 14:53:00,
2013-03-24 09:02:00,2.0,-99.9,-100.00,NW,314,10.0,14.0,-999,-99.99,,,-99.99,,2013-03-24 15:02:00,
2013-03-24 09:13:00,4.0,-99.9,-100.00,NW,315,10.0,14.0,-999,-99.99,,,-99.99,,2013-03-24 15:13:00,
2013-03-24 09:23:00,4.0,-99.9,-100.00,NW,315,10.0,14.0,-999,-99.99,,,-99.99,,2013-03-24 15:23:00,
2013-03-24 09:33:00,4.0,-99.9,-100.00,NW,315,10.0,14.0,-999,-99.99,,,-99.99,,2013-03-24 15:33:00,
2013-03-24 09:43:00,7.0,-99.9,-100.00,NW,311,7.0,14.0,-999,-99.99,,,-99.99,,2013-03-24 15:43:00,
2013-03-24 09:53:00,7.0,-99.9,-100.00,NW,311,7.0,14.0,-999,-99.99,,,-99.99,,2013-03-24 15:53:00,
2013-03-24 10:03:00,7.0,-99.9,-100.00,NW,306,8.0,13.0,-999,-99.99,,,-99.99,,2013-03-24 16:03:00,
2013-03-24 10:13:00,8.0,-99.9,-100.00,NW,316,7.0,11.0,-999,-99.99,,,-99.99,,2013-03-24 16:13:00,
2013-03-24 10:23:00,8.0,-99.9,-100.00,NW,316,7.0,11.0,-999,-99.99,,,-99.99,,2013-03-24 16:23:00,
2013-03-24 10:33:00,8.0,-99.9,-100.00,NW,316,7.0,11.0,-999,-99.99,,,-99.99,,2013-03-24 16:33:00,
2013-03-24 10:43:00,9.0,-99.9,-100.00,NW,311,8.0,15.0,-999,-99.99,,,-99.99,,2013-03-24 16:43:00,
2013-03-24 10:53:00,9.0,-99.9,-100.00,NW,311,8.0,15.0,-999,-99.99,,,-99.99,,2013-03-24 16:53:00,
2013-03-24 11:03:00,10.0,-99.9,-100.00,NW,314,8.0,14.0,-999,-99.99,,,-99.99,,2013-03-24 17:03:00,
2013-03-24 11:12:00,11.0,-99.9,-100.00,NW,311,8.0,14.0,-999,-99.99,,,-99.99,,2013-03-24 17:12:00,
2013-03-24 11:23:00,11.0,-99.9,-100.00,NW,311,8.0,14.0,-999,-99.99,,,-99.99,,2013-03-24 17:23:00,
2013-03-24 11:33:00,11.0,-99.9,-100.00,NW,311,8.0,14.0,-999,-99.99,,,-99.99,,2013-03-24 17:33:00,
2013-03-24 11:43:00,12.0,-99.9,-100.00,NW,306,8.0,13.0,-999,-99.99,,,-99.99,,2013-03-24 17:43:00,
2013-03-24 11:53:00,12.0,-99.9,-100.00,NW,306,8.0,13.0,-999,-99.99,,,-99.99,,2013-03-24 17:53:00,
2013-03-24 12:03:00,12.0,-99.9,-100.00,NW,307,8.0,13.0,-999,-99.99,,,-99.99,,2013-03-24 18:03:00,
2013-03-24 12:13:00,12.0,-99.9,-100.00,NW,311,10.0,18.0,-999,-99.99,,,-99.99,,2013-03-24 18:13:00,
2013-03-24 12:22:00,12.0,-99.9,-100.00,NW,311,10.0,18.0,-999,-99.99,,,-99.99,,2013-03-24 18:22:00,
2013-03-24 12:33:00,12.0,-99.9,-100.00,NW,311,10.0,18.0,-999,-99.99,,,-99.99,,2013-03-24 18:33:00,
2013-03-24 12:43:00,13.0,-99.9,-100.00,NW,305,11.0,19.0,-999,-99.99,,,-99.99,,2013-03-24 18:43:00,
2013-03-24 12:53:00,13.0,-99.9,-100.00,NW,305,11.0,19.0,-999,-99.99,,,-99.99,,2013-03-24 18:53:00,
2013-03-24 13:03:00,13.0,-99.9,-100.00,NW,312,10.0,16.0,-999,-99.99,,,-99.99,,2013-03-24 19:03:00,
2013-03-24 13:12:00,14.0,-99.9,-100.00,NW,315,8.0,12.0,-999,-99.99,,,-99.99,,2013-03-24 19:12:00,
2013-03-24 13:23:00,14.0,-99.9,-100.00,NW,315,8.0,12.0,-999,-99.99,,,-99.99,,2013-03-24 19:23:00,
2013-03-24 13:33:00,14.0,-99.9,-100.00,NW,315,8.0,12.0,-999,-99.99,,,-99.99,,2013-03-24 19:33:00,
2013-03-24 13:43:00,14.0,-99.9,-100.00,NW,309,8.0,13.0,-999,-99.99,,,-99.99,,2013-03-24 19:43:00,
2013-03-24 13:53:00,14.0,-99.9,-100.00,NW,309,8.0,13.0,-999,-99.99,,,-99.99,,2013-03-24 19:53:00,
2013-03-24 14:03:00,14.0,-99.9,-100.00,NW,309,8.0,13.0,-999,-99.99,,,-99.99,,2013-03-24 20:03:00,
2013-03-24 14:13:00,14.0,-99.9,-100.00,NW,311,7.0,13.0,-999,-99.99,,,-99.99,,2013-03-24 20:13:00,
2013-03-24 14:22:00,14.0,-99.9,-100.00,NW,311,7.0,13.0,-999,-99.99,,,-99.99,,2013-03-24 20:22:00,
2013-03-24 14:33:00,14.0,-99.9,-100.00,NW,311,7.0,13.0,-999,-99.99,,,-99.99,,2013-03-24 20:33:00,
2013-03-24 14:43:00,13.0,-99.9,-100.00,NW,307,8.0,13.0,-999,-99.99,,,-99.99,,2013-03-24 20:43:00,
2013-03-24 14:53:00,13.0,-99.9,-100.00,NW,307,8.0,13.0,-999,-99.99,,,-99.99,,2013-03-24 20:53:00,
2013-03-24 15:03:00,14.0,-99.9,-100.00,NW,312,10.0,17.0,-999,-99.99,,,-99.99,,2013-03-24 21:03:00,
2013-03-24 15:12:00,13.0,-99.9,-100.00,NW,311,10.0,16.0,-999,-99.99,,,-99.99,,2013-03-24 21:12:00,
2013-03-24 15:23:00,13.0,-99.9,-100.00,NW,311,10.0,16.0,-999,-99.99,,,-99.99,,2013-03-24 21:23:00,
2013-03-24 15:33:00,13.0,-99.9,-100.00,NW,311,10.0,16.0,-999,-99.99,,,-99.99,,2013-03-24 21:33:00,
2013-03-24 15:43:00,12.0,-99.9,-100.00,WNW,302,10.0,16.0,-999,-99.99,,,-99.99,,2013-03-24 21:43:00,
2013-03-24 15:53:00,12.0,-99.9,-100.00,WNW,302,10.0,16.0,-999,-99.99,,,-99.99,,2013-03-24 21:53:00,
2013-03-24 16:03:00,12.0,-99.9,-100.00,NW,305,10.0,19.0,-999,-99.99,,,-99.99,,2013-03-24 22:03:00,
2013-03-24 16:13:00,13.0,-99.9,-100.00,WNW,302,7.0,13.0,-999,-99.99,,,-99.99,,2013-03-24 22:13:00,
2013-03-24 16:23:00,13.0,-99.9,-100.00,WNW,302,7.0,13.0,-999,-99.99,,,-99.99,,2013-03-24 22:23:00,
2013-03-24 16:33:00,13.0,-99.9,-100.00,WNW,302,7.0,13.0,-999,-99.99,,,-99.99,,2013-03-24 22:33:00,
2013-03-24 16:43:00,13.0,-99.9,-100.00,WNW,302,7.0,14.0,-999,-99.99,,,-99.99,,2013-03-24 22:43:00,
2013-03-24 16:53:00,13.0,-99.9,-100.00,WNW,302,7.0,14.0,-999,-99.99,,,-99.99,,2013-03-24 22:53:00,
2013-03-24 17:03:00,12.0,-99.9,-100.00,NW,306,9.0,14.0,-999,-99.99,,,-99.99,,2013-03-24 23:03:00,
2013-03-24 17:12:00,13.0,-99.9,-100.00,NW,308,8.0,12.0,-999,-99.99,,,-99.99,,2013-03-24 23:12:00,
2013-03-24 17:23:00,13.0,-99.9,-100.00,NW,308,8.0,12.0,-999,-99.99,,,-99.99,,2013-03-24 23:23:00,
2013-03-24 17:32:00,13.0,-99.9,-100.00,NW,308,8.0,12.0,-999,-99.99,,,-99.99,,2013-03-24 23:32:00,
2013-03-24 17:43:00,13.0,-99.9,-100.00,WNW,293,7.0,12.0,-999,-99.99,,,-99.99,,2013-03-24 23:43:00,
2013-03-24 17:53:00,13.0,-99.9,-100.00,WNW,293,7.0,12.0,-999,-99.99,,,-99.99,,2013-03-24 23:53:00,
2013-03-24 18:02:00,12.0,-99.9,-100.00,WNW,284,6.0,11.0,-999,-99.99,,,-99.99,,2013-03-25 00:02:00,
2013-03-24 18:12:00,11.0,-99.9,-100.00,WNW,295,6.0,10.0,-999,-99.99,,,-99.99,,2013-03-25 00:12:00,
2013-03-24 18:23:00,11.0,-99.9,-100.00,WNW,295,6.0,10.0,-999,-99.99,,,-99.99,,2013-03-25 00:23:00,
2013-03-24 18:33:00,11.0,-99.9,-100.00,WNW,295,6.0,10.0,-999,-99.99,,,-99.99,,2013-03-25 00:33:00,
2013-03-24 18:43:00,9.0,-99.9,-100.00,West,281,6.0,11.0,-999,-99.99,,,-99.99,,2013-03-25 00:43:00,
2013-03-24 18:53:00,9.0,-99.9,-100.00,West,281,6.0,11.0,-999,-99.99,,,-99.99,,2013-03-25 00:53:00,
2013-03-24 19:02:00,9.0,-99.9,-100.00,West,265,7.0,11.0,-999,-99.99,,,-99.99,,2013-03-25 01:02:00,
2013-03-24 19:12:00,9.0,-99.9,-100.00,West,277,7.0,11.0,-999,-99.99,,,-99.99,,2013-03-25 01:12:00,
2013-03-24 19:22:00,9.0,-99.9,-100.00,West,277,7.0,11.0,-999,-99.99,,,-99.99,,2013-03-25 01:22:00,
2013-03-24 19:32:00,9.0,-99.9,-100.00,West,277,7.0,11.0,-999,-99.99,,,-99.99,,2013-03-25 01:32:00,
2013-03-24 19:42:00,8.0,-99.9,-100.00,West,262,9.0,12.0,-999,-99.99,,,-99.99,,2013-03-25 01:42:00,
2013-03-24 19:53:00,8.0,-99.9,-100.00,West,262,9.0,12.0,-999,-99.99,,,-99.99,,2013-03-25 01:53:00,
2013-03-24 20:02:00,7.0,-99.9,-100.00,WSW,253,6.0,8.0,-999,-99.99,,,-99.99,,2013-03-25 02:02:00,
2013-03-24 20:12:00,7.0,-99.9,-100.00,SW,232,5.0,6.0,-999,-99.99,,,-99.99,,2013-03-25 02:12:00,
2013-03-24 20:23:00,7.0,-99.9,-100.00,SW,232,5.0,6.0,-999,-99.99,,,-99.99,,2013-03-25 02:23:00,
2013-03-24 20:33:00,7.0,-99.9,-100.00,SW,232,5.0,6.0,-999,-99.99,,,-99.99,,2013-03-25 02:33:00,
2013-03-24 20:43:00,7.0,-99.9,-100.00,SSE,166,7.0,9.0,-999,-99.99,,,-99.99,,2013-03-25 02:43:00,
2013-03-24 20:53:00,7.0,-99.9,-100.00,SSE,166,7.0,9.0,-999,-99.99,,,-99.99,,2013-03-25 02:53:00,
2013-03-24 21:03:00,7.0,-99.9,-100.00,SSE,163,7.0,12.0,-999,-99.99,,,-99.99,,2013-03-25 03:03:00,
2013-03-24 21:13:00,6.0,-99.9,-100.00,SE,136,8.0,13.0,-999,-99.99,,,-99.99,,2013-03-25 03:13:00,
2013-03-24 21:23:00,6.0,-99.9,-100.00,SE,136,8.0,13.0,-999,-99.99,,,-99.99,,2013-03-25 03:23:00,
2013-03-24 21:34:00,6.0,-99.9,-100.00,SE,136,8.0,13.0,-999,-99.99,,,-99.99,,2013-03-25 03:34:00,
2013-03-24 21:43:00,6.0,-99.9,-100.00,SE,144,7.0,13.0,-999,-99.99,,,-99.99,,2013-03-25 03:43:00,
2013-03-24 21:53:00,6.0,-99.9,-100.00,SE,144,7.0,13.0,-999,-99.99,,,-99.99,,2013-03-25 03:53:00,
2013-03-24 22:03:00,6.0,-99.9,-100.00,SE,136,6.0,8.0,-999,-99.99,,,-99.99,,2013-03-25 04:03:00,
2013-03-24 22:13:00,6.0,-99.9,-100.00,SE,129,5.0,7.0,-999,-99.99,,,-99.99,,2013-03-25 04:13:00,
2013-03-24 22:23:00,6.0,-99.9,-100.00,SE,129,5.0,7.0,-999,-99.99,,,-99.99,,2013-03-25 04:23:00,
2013-03-24 22:33:00,6.0,-99.9,-100.00,SE,129,5.0,7.0,-999,-99.99,,,-99.99,,2013-03-25 04:33:00,
2013-03-24 22:43:00,5.0,-99.9,-100.00,ESE,119,2.0,4.0,-999,-99.99,,,-99.99,,2013-03-25 04:43:00,
2013-03-24 22:53:00,5.0,-99.9,-100.00,ESE,119,2.0,4.0,-999,-99.99,,,-99.99,,2013-03-25 04:53:00,
2013-03-24 23:03:00,5.0,-99.9,-100.00,ESE,109,0.0,3.0,-999,-99.99,,,-99.99,,2013-03-25 05:03:00,
2013-03-24 23:12:00,5.0,-99.9,-100.00,ESE,103,4.0,5.0,-999,-99.99,,,-99.99,,2013-03-25 05:12:00,
2013-03-24 23:22:00,5.0,-99.9,-100.00,ESE,103,4.0,5.0,-999,-99.99,,,-99.99,,2013-03-25 05:22:00,
2013-03-24 23:33:00,5.0,-99.9,-100.00,ESE,103,4.0,5.0,-999,-99.99,,,-99.99,,2013-03-25 05:33:00,
2013-03-24 23:43:00,5.0,-99.9,-100.00,SW,230,2.0,3.0,-999,-99.99,,,-99.99,,2013-03-25 05:43:00,
2013-03-24 23:53:00,5.0,-99.9,-100.00,SW,230,2.0,3.0,-999,-99.99,,,-99.99,,2013-03-25 05:53:00,